X  Tanca Dades meteorològiques de l'aviació METAR     LBPD Plovdiv International Airport
Temperatura
22°C Temperatura
17°C Rosada
73% Humitat



Vent
1 M/S
2 MPH
3 KM/H
2 NUS



Tranquil
N
Condicions actuals

Llum Dutxes Pluja, Area Tempesta de tronada Llum Dutxes Pluja, Area Tempesta de tronada
Pressió 1009.82 (hPa) - 29.82 (inHg)
Visibilitat 6 (milla) - 9.7 (km)
Aeroport
Codi aeroport LBPD

Ubicació: Plovdiv International Airport
Distància: 14 (km)

Metar:
LBPD 140600Z AUTO VRB02KT 9999 -SHRA VCTS FEW042 //////CB 22/17 Q1010 TEMPO VRB16G26KT 3000 TSRA BKN025CB

Temps: 14-06-2024 09:00 EEST